createdAt,value
2018-09-14T00:01:30.324Z,101793.05
2018-09-14T00:04:34.528Z,101788.84
2018-09-14T00:07:38.744Z,101787.70
2018-09-14T00:10:42.957Z,101788.03
2018-09-14T00:13:47.186Z,101793.05
2018-09-14T00:16:51.412Z,101789.27
2018-09-14T00:19:55.624Z,101784.14
2018-09-14T00:22:59.842Z,101789.67
2018-09-14T00:26:04.044Z,101793.37
2018-09-14T00:29:08.284Z,101784.64
2018-09-14T00:32:12.504Z,101787.70
2018-09-14T00:35:16.758Z,101787.50
2018-09-14T00:38:20.977Z,101785.92
2018-09-14T00:41:25.204Z,101783.84
2018-09-14T00:44:30.162Z,101781.42
2018-09-14T00:47:34.369Z,101781.72
2018-09-14T00:50:38.577Z,101783.72
2018-09-14T00:53:42.788Z,101774.48
2018-09-14T00:56:47.002Z,101779.42
2018-09-14T00:59:51.247Z,101776.61
2018-09-14T01:02:55.445Z,101780.98
2018-09-14T01:05:59.652Z,101773.75
2018-09-14T01:09:04.318Z,101777.44
2018-09-14T01:12:08.537Z,101788.63
2018-09-14T01:15:12.756Z,101783.81
2018-09-14T01:18:17.073Z,101784.02
2018-09-14T01:21:21.277Z,101786.84
2018-09-14T01:24:25.690Z,101788.74
2018-09-14T01:27:29.888Z,101785.69
2018-09-14T01:30:34.117Z,101781.30
2018-09-14T01:33:38.335Z,101780.78
2018-09-14T01:36:42.572Z,101777.42
2018-09-14T01:39:46.789Z,101777.62
2018-09-14T01:42:51.049Z,101775.11
2018-09-14T01:45:56.345Z,101776.05
2018-09-14T01:49:00.594Z,101772.89
2018-09-14T01:52:04.812Z,101763.91
2018-09-14T01:55:09.033Z,101764.41
2018-09-14T01:58:13.232Z,101762.55
2018-09-14T02:01:17.515Z,101769.45
2018-09-14T02:04:21.709Z,101758.34
2018-09-14T02:07:25.933Z,101762.22
2018-09-14T02:10:30.141Z,101752.38
2018-09-14T02:13:34.384Z,101754.26
2018-09-14T02:16:38.596Z,101756.47
2018-09-14T02:19:42.837Z,101751.02
2018-09-14T02:22:47.568Z,101748.30
2018-09-14T02:25:51.808Z,101739.28
2018-09-14T02:28:56.016Z,101742.21
2018-09-14T02:32:00.256Z,101741.78
2018-09-14T02:35:04.490Z,101746.08
2018-09-14T02:38:08.737Z,101745.47
2018-09-14T02:41:12.982Z,101737.17
2018-09-14T02:44:17.217Z,101738.53
2018-09-14T02:47:21.608Z,101739.29
2018-09-14T02:50:25.853Z,101740.52
2018-09-14T02:53:30.100Z,101737.88
2018-09-14T02:56:34.336Z,101738.81
2018-09-14T02:59:38.572Z,101742.45
2018-09-14T03:02:42.830Z,101741.84
2018-09-14T03:05:47.050Z,101739.92
2018-09-14T03:08:51.286Z,101744.97
2018-09-14T03:11:55.510Z,101740.14
2018-09-14T03:14:59.749Z,101744.64
2018-09-14T03:18:03.988Z,101741.48
2018-09-14T03:21:08.225Z,101740.73
2018-09-14T03:24:12.417Z,101737.89
2018-09-14T03:27:16.656Z,101735.58
2018-09-14T03:30:20.858Z,101739.05
2018-09-14T03:33:25.066Z,101743.50
2018-09-14T03:36:29.285Z,101739.02
2018-09-14T03:39:33.520Z,101744.87
2018-09-14T03:42:37.764Z,101735.55
2018-09-14T03:45:41.984Z,101729.16
2018-09-14T03:48:46.184Z,101736.47
2018-09-14T03:51:50.420Z,101731.55
2018-09-14T03:54:54.778Z,101728.92
2018-09-14T03:57:59.006Z,101730.16
2018-09-14T04:01:03.280Z,101732.56
2018-09-14T04:04:07.512Z,101726.82
2018-09-14T04:07:11.740Z,101740.83
2018-09-14T04:10:15.965Z,101737.77
2018-09-14T04:13:20.194Z,101735.25
2018-09-14T04:16:24.388Z,101737.97
2018-09-14T04:19:28.685Z,101739.53
2018-09-14T04:22:32.913Z,101736.00
2018-09-14T04:25:37.157Z,101738.72
2018-09-14T04:28:41.385Z,101729.71
2018-09-14T04:31:45.625Z,101727.84
2018-09-14T04:34:50.877Z,101733.08
2018-09-14T04:37:55.137Z,101730.87
2018-09-14T04:40:59.386Z,101732.73
2018-09-14T04:44:03.606Z,101730.87
2018-09-14T04:47:07.853Z,101730.02
2018-09-14T04:50:12.114Z,101730.02
2018-09-14T04:53:16.309Z,101728.35
2018-09-14T04:56:20.509Z,101727.70
2018-09-14T04:59:24.762Z,101726.55
2018-09-14T05:02:28.988Z,101733.95
2018-09-14T05:05:33.225Z,101728.82
2018-09-14T05:08:37.417Z,101734.63
2018-09-14T05:11:41.620Z,101726.58
2018-09-14T05:14:45.826Z,101723.55
2018-09-14T05:17:50.004Z,101725.22
2018-09-14T05:20:54.269Z,101727.63
2018-09-14T05:23:58.595Z,101733.17
2018-09-14T05:27:02.793Z,101733.27
2018-09-14T05:30:07.000Z,101727.84
2018-09-14T05:33:11.224Z,101727.63
2018-09-14T05:36:15.423Z,101730.28
2018-09-14T05:39:19.626Z,101727.67
2018-09-14T05:42:23.850Z,101730.32
2018-09-14T05:45:28.076Z,101730.56
2018-09-14T05:48:32.261Z,101729.75
2018-09-14T05:51:36.464Z,101738.45
2018-09-14T05:54:40.675Z,101728.75
2018-09-14T05:57:44.873Z,101735.04
2018-09-14T06:00:49.068Z,101736.73
2018-09-14T06:03:53.297Z,101740.62
2018-09-14T06:06:57.517Z,101738.03
2018-09-14T06:10:01.733Z,101743.42
2018-09-14T06:13:06.088Z,101743.11
2018-09-14T06:16:10.271Z,101740.53
2018-09-14T06:19:14.509Z,101740.12
2018-09-14T06:22:18.692Z,101742.23
2018-09-14T06:25:22.916Z,101739.40
2018-09-14T06:28:27.137Z,101741.28
2018-09-14T06:31:31.357Z,101738.55
2018-09-14T06:34:35.535Z,101741.78
2018-09-14T06:37:39.769Z,101733.14
2018-09-14T06:40:43.956Z,101730.91
2018-09-14T06:43:48.253Z,101735.39
2018-09-14T06:46:52.481Z,101729.76
2018-09-14T06:49:56.677Z,101724.59
2018-09-14T06:53:00.871Z,101726.41
2018-09-14T06:56:05.155Z,101726.53
2018-09-14T06:59:09.467Z,101727.20
2018-09-14T07:02:13.689Z,101731.97
2018-09-14T07:05:17.921Z,101725.66
2018-09-14T07:08:22.145Z,101721.87
2018-09-14T07:11:26.352Z,101726.28
2018-09-14T07:14:30.611Z,101729.55
2018-09-14T07:17:34.808Z,101724.69
2018-09-14T07:20:39.005Z,101719.84
2018-09-14T07:23:43.230Z,101717.61
2018-09-14T07:26:47.465Z,101713.13
2018-09-14T07:29:51.727Z,101709.78
2018-09-14T07:32:55.937Z,101718.41
2018-09-14T07:36:00.154Z,101724.41
2018-09-14T07:39:05.368Z,101728.34
2018-09-14T07:42:09.589Z,101729.16
2018-09-14T07:45:13.805Z,101734.26
2018-09-14T07:48:18.094Z,101730.87
2018-09-14T07:51:22.254Z,101723.73
2018-09-14T07:54:26.543Z,101727.04
2018-09-14T07:57:30.748Z,101729.05
2018-09-14T08:00:34.973Z,101724.27
2018-09-14T08:03:39.182Z,101723.40
2018-09-14T08:06:43.393Z,101735.03
2018-09-14T08:09:47.605Z,101741.34
2018-09-14T08:12:51.818Z,101738.17
2018-09-14T08:15:56.045Z,101742.94
2018-09-14T08:19:00.245Z,101747.83
2018-09-14T08:22:04.497Z,101746.25
2018-09-14T08:25:08.664Z,101742.89
2018-09-14T08:28:12.881Z,101752.09
2018-09-14T08:31:17.090Z,101742.36
2018-09-14T08:34:21.310Z,101744.58
2018-09-14T08:37:25.501Z,101756.38
2018-09-14T08:40:30.026Z,101743.77
2018-09-14T08:43:34.236Z,101746.48
2018-09-14T08:46:38.475Z,101746.08
2018-09-14T08:49:42.677Z,101754.49
2018-09-14T08:52:46.901Z,101756.19
2018-09-14T08:55:51.099Z,101764.22
2018-09-14T08:58:55.317Z,101761.06
2018-09-14T09:01:59.513Z,101773.94
2018-09-14T09:05:03.733Z,101770.83
2018-09-14T09:08:07.916Z,101774.66
2018-09-14T09:11:12.143Z,101774.78
2018-09-14T09:14:16.322Z,101780.50
2018-09-14T09:17:20.553Z,101775.20
2018-09-14T09:20:24.758Z,101780.14
2018-09-14T09:23:29.005Z,101787.36
2018-09-14T09:26:33.233Z,101792.85
2018-09-14T09:29:37.437Z,101788.61
2018-09-14T09:32:42.436Z,101789.93
2018-09-14T09:35:46.674Z,101782.63
2018-09-14T09:38:50.901Z,101791.09
2018-09-14T09:41:55.112Z,101788.83
2018-09-14T09:44:59.317Z,101782.41
2018-09-14T09:48:03.516Z,101784.95
2018-09-14T09:51:07.745Z,101775.80
2018-09-14T09:54:11.929Z,101774.89
2018-09-14T09:57:16.158Z,101770.55
2018-09-14T10:00:25.688Z,101775.55
2018-09-14T10:03:35.315Z,101775.74
2018-09-14T10:06:39.517Z,101770.73
2018-09-14T10:09:43.736Z,101765.62
2018-09-14T10:12:47.961Z,101770.91
2018-09-14T10:15:52.142Z,101769.86
2018-09-14T10:18:56.353Z,101772.37
2018-09-14T10:22:00.542Z,101776.09
2018-09-14T10:25:04.986Z,101775.55
2018-09-14T10:28:09.185Z,101771.44
2018-09-14T10:31:13.419Z,101768.78
2018-09-14T10:34:17.640Z,101768.58
2018-09-14T10:37:21.856Z,101756.14
2018-09-14T10:40:26.111Z,101755.27
2018-09-14T10:43:30.281Z,101758.48
2018-09-14T10:46:34.480Z,101758.63
2018-09-14T10:49:38.672Z,101757.12
2018-09-14T10:52:42.889Z,101750.85
2018-09-14T10:55:47.129Z,101754.06
2018-09-14T10:58:51.353Z,101767.80
2018-09-14T11:01:55.555Z,101760.64
2018-09-14T11:04:59.754Z,101754.87
2018-09-14T11:08:03.977Z,101755.67
2018-09-14T11:11:11.904Z,101752.64
2018-09-14T11:14:16.097Z,101754.05
2018-09-14T11:17:20.285Z,101741.70
2018-09-14T11:20:24.564Z,101743.80
2018-09-14T11:23:28.717Z,101743.36
2018-09-14T11:26:33.281Z,101736.86
2018-09-14T11:29:37.496Z,101732.98
2018-09-14T11:32:41.733Z,101741.11
2018-09-14T11:35:45.940Z,101732.17
2018-09-14T11:38:50.134Z,101742.58
2018-09-14T11:41:54.878Z,101733.55
2018-09-14T11:44:59.273Z,101733.89
2018-09-14T11:48:03.491Z,101725.03
2018-09-14T11:51:07.836Z,101732.47
2018-09-14T11:54:12.120Z,101728.68
2018-09-14T11:57:16.286Z,101730.34
2018-09-14T12:00:20.482Z,101735.78
2018-09-14T12:03:24.701Z,101725.75
2018-09-14T12:06:28.915Z,101730.70
2018-09-14T12:09:33.198Z,101725.75
2018-09-14T12:12:37.388Z,101723.59
2018-09-14T12:15:41.604Z,101723.34
2018-09-14T12:18:45.793Z,101721.16
2018-09-14T12:21:50.003Z,101725.93
2018-09-14T12:24:54.252Z,101718.77
2018-09-14T12:27:58.460Z,101714.28
2018-09-14T12:31:02.661Z,101711.32
2018-09-14T12:34:07.108Z,101716.30
2018-09-14T12:37:11.302Z,101708.14
2018-09-14T12:40:15.528Z,101706.08
2018-09-14T12:43:19.730Z,101703.54
2018-09-14T12:46:23.936Z,101704.53
2018-09-14T12:49:28.233Z,101707.34
2018-09-14T12:52:32.438Z,101713.75
2018-09-14T12:55:36.624Z,101702.84
2018-09-14T12:58:40.884Z,101711.25
2018-09-14T13:01:45.091Z,101704.28
2018-09-14T13:04:49.328Z,101703.97
2018-09-14T13:07:53.524Z,101695.19
2018-09-14T13:10:57.745Z,101704.56
2018-09-14T13:14:01.895Z,101700.41
2018-09-14T13:17:10.381Z,101700.69
2018-09-14T13:20:14.605Z,101695.55
2018-09-14T13:23:18.824Z,101690.65
2018-09-14T13:26:23.033Z,101684.41
2018-09-14T13:29:27.216Z,101679.80
2018-09-14T13:32:31.420Z,101674.34
2018-09-14T13:35:35.627Z,101668.69
2018-09-14T13:38:39.868Z,101672.35
2018-09-14T13:41:44.093Z,101675.08
2018-09-14T13:44:48.330Z,101666.42
2018-09-14T13:47:52.546Z,101667.05
2018-09-14T13:50:56.777Z,101666.33
2018-09-14T13:54:00.992Z,101659.70
2018-09-14T13:57:05.196Z,101661.18
2018-09-14T14:00:09.456Z,101664.55
2018-09-14T14:03:13.662Z,101659.11
2018-09-14T14:06:17.904Z,101654.72
2018-09-14T14:09:22.111Z,101660.89
2018-09-14T14:12:26.407Z,101664.69
2018-09-14T14:15:30.593Z,101656.98
2018-09-14T14:18:34.820Z,101656.10
2018-09-14T14:21:39.398Z,101659.45
2018-09-14T14:24:43.594Z,101653.56
2018-09-14T14:27:47.829Z,101656.95
2018-09-14T14:30:52.024Z,101647.76
2018-09-14T14:33:56.217Z,101648.56
2018-09-14T14:37:00.460Z,101644.09
2018-09-14T14:40:04.669Z,101647.08
2018-09-14T14:43:08.920Z,101637.72
2018-09-14T14:46:13.444Z,101633.20
2018-09-14T14:49:17.696Z,101639.19
2018-09-14T14:52:21.914Z,101636.13
2018-09-14T14:55:26.165Z,101631.13
2018-09-14T14:58:30.365Z,101632.10
2018-09-14T15:01:34.576Z,101624.71
2018-09-14T15:04:38.835Z,101620.84
2018-09-14T15:07:43.041Z,101624.08
2018-09-14T15:10:47.306Z,101613.91
2018-09-14T15:13:51.513Z,101619.60
2018-09-14T15:16:55.709Z,101619.84
2018-09-14T15:19:59.941Z,101612.18
2018-09-14T15:23:04.129Z,101613.02
2018-09-14T15:26:08.337Z,101623.41
2018-09-14T15:29:12.545Z,101613.27
2018-09-14T15:32:16.748Z,101611.61
2018-09-14T15:35:20.968Z,101619.98
2018-09-14T15:38:25.160Z,101611.14
2018-09-14T15:41:29.356Z,101615.26
2018-09-14T15:44:34.589Z,101610.26
2018-09-14T15:47:38.769Z,101609.83
2018-09-14T15:50:43.052Z,101604.22
2018-09-14T15:53:47.241Z,101608.66
2018-09-14T15:56:51.453Z,101610.03
2018-09-14T15:59:55.632Z,101601.44
2018-09-14T16:02:59.849Z,101605.03
2018-09-14T16:06:04.047Z,101603.30
2018-09-14T16:09:10.139Z,101611.64
2018-09-14T16:12:14.326Z,101604.42
2018-09-14T16:15:18.557Z,101605.20
2018-09-14T16:18:22.760Z,101602.41
2018-09-14T16:21:26.975Z,101601.20
2018-09-14T16:24:31.165Z,101599.59
2018-09-14T16:27:35.525Z,101594.31
2018-09-14T16:30:39.773Z,101594.27
2018-09-14T16:33:43.956Z,101598.30
2018-09-14T16:36:48.192Z,101594.19
2018-09-14T16:39:52.409Z,101591.09
2018-09-14T16:42:56.618Z,101592.94
2018-09-14T16:46:00.817Z,101590.16
2018-09-14T16:49:05.068Z,101579.63
2018-09-14T16:52:09.283Z,101581.04
2018-09-14T16:55:13.682Z,101583.94
2018-09-14T16:58:17.936Z,101575.03
2018-09-14T17:01:22.172Z,101572.45
2018-09-14T17:04:26.375Z,101574.02
2018-09-14T17:07:30.595Z,101572.05
2018-09-14T17:10:34.778Z,101566.52
2018-09-14T17:13:38.986Z,101567.23
2018-09-14T17:16:43.186Z,101565.02
2018-09-14T17:19:47.397Z,101555.91
2018-09-14T17:22:51.605Z,101561.08
2018-09-14T17:25:55.804Z,101557.56
2018-09-14T17:29:00.080Z,101560.50
2018-09-14T17:32:04.299Z,101559.05
2018-09-14T17:35:08.521Z,101558.72
2018-09-14T17:38:12.772Z,101551.67
2018-09-14T17:41:16.961Z,101558.23
2018-09-14T17:44:21.181Z,101553.47
2018-09-14T17:47:25.396Z,101558.11
2018-09-14T17:50:29.592Z,101549.23
2018-09-14T17:53:33.795Z,101552.21
2018-09-14T17:56:38.020Z,101555.14
2018-09-14T17:59:42.204Z,101546.60
2018-09-14T18:02:46.493Z,101545.66
2018-09-14T18:05:50.692Z,101548.64
2018-09-14T18:08:54.933Z,101553.14
2018-09-14T18:11:59.118Z,101561.22
2018-09-14T18:15:03.326Z,101553.77
2018-09-14T18:18:07.529Z,101558.16
2018-09-14T18:21:11.748Z,101557.93
2018-09-14T18:24:15.961Z,101550.03
2018-09-14T18:27:20.175Z,101545.27
2018-09-14T18:30:24.389Z,101549.90
2018-09-14T18:33:28.607Z,101543.90
2018-09-14T18:36:32.793Z,101542.77
2018-09-14T18:39:37.025Z,101535.55
2018-09-14T18:42:42.005Z,101541.73
2018-09-14T18:45:46.223Z,101538.11
2018-09-14T18:48:50.471Z,101549.11
2018-09-14T18:51:54.696Z,101551.38
2018-09-14T18:54:59.024Z,101546.08
2018-09-14T18:58:03.308Z,101549.24
2018-09-14T19:01:07.573Z,101548.63
2018-09-14T19:04:11.859Z,101549.24
2018-09-14T19:07:16.088Z,101546.08
2018-09-14T19:10:20.340Z,101538.63
2018-09-14T19:13:24.644Z,101536.89
2018-09-14T19:16:28.880Z,101533.02
2018-09-14T19:19:33.160Z,101539.16
2018-09-14T19:22:38.853Z,101537.68
2018-09-14T19:25:43.122Z,101525.41
2018-09-14T19:28:47.788Z,101532.10
2018-09-14T19:31:52.115Z,101525.30
2018-09-14T19:34:56.377Z,101529.17
2018-09-14T19:38:00.622Z,101526.34
2018-09-14T19:41:04.863Z,101532.08
2018-09-14T19:44:09.111Z,101522.41
2018-09-14T19:47:14.225Z,101525.59
2018-09-14T19:50:18.533Z,101519.03
2018-09-14T19:53:22.885Z,101521.06
2018-09-14T19:56:27.164Z,101527.91
2018-09-14T19:59:31.402Z,101522.67
2018-09-14T20:02:35.617Z,101520.16
2018-09-14T20:05:39.860Z,101525.77
2018-09-14T20:08:44.090Z,101515.58
2018-09-14T20:11:48.305Z,101510.66
2018-09-14T20:14:52.540Z,101508.02
2018-09-14T20:17:56.835Z,101504.70
2018-09-14T20:21:00.976Z,101504.94
2018-09-14T20:24:05.217Z,101505.52
2018-09-14T20:27:09.463Z,101503.09
2018-09-14T20:30:13.678Z,101504.94
2018-09-14T20:33:18.753Z,101501.16
2018-09-14T20:36:22.977Z,101499.09
2018-09-14T20:39:27.208Z,101498.20
2018-09-14T20:42:31.922Z,101492.13
2018-09-14T20:45:36.189Z,101489.91
2018-09-14T20:48:40.452Z,101486.88
2018-09-14T20:51:44.802Z,101480.44
2018-09-14T20:54:48.956Z,101477.86
2018-09-14T20:57:53.176Z,101482.76
2018-09-14T21:00:57.433Z,101481.07
2018-09-14T21:04:01.652Z,101478.77
2018-09-14T21:07:06.001Z,101475.66
2018-09-14T21:10:10.218Z,101483.27
2018-09-14T21:13:14.445Z,101487.84
2018-09-14T21:16:18.641Z,101478.97
2018-09-14T21:19:22.857Z,101479.41
2018-09-14T21:22:27.065Z,101488.47
2018-09-14T21:25:31.313Z,101480.97
2018-09-14T21:28:35.533Z,101487.67
2018-09-14T21:31:39.772Z,101485.73
2018-09-14T21:34:43.964Z,101484.52
2018-09-14T21:37:48.189Z,101474.56
2018-09-14T21:40:52.414Z,101474.75
2018-09-14T21:43:56.669Z,101469.22
2018-09-14T21:47:00.889Z,101470.50
2018-09-14T21:50:05.425Z,101469.23
2018-09-14T21:53:09.632Z,101470.34
2018-09-14T21:56:13.846Z,101474.25
2018-09-14T21:59:18.056Z,101475.76
2018-09-14T22:02:22.280Z,101473.43
2018-09-14T22:05:26.513Z,101469.23
2018-09-14T22:08:30.696Z,101471.74
2018-09-14T22:11:34.898Z,101475.03
2018-09-14T22:14:39.127Z,101468.05
2018-09-14T22:17:43.356Z,101462.29
2018-09-14T22:20:48.308Z,101464.33
2018-09-14T22:23:52.517Z,101468.11
2018-09-14T22:26:56.762Z,101465.52
2018-09-14T22:30:00.968Z,101457.11
2018-09-14T22:33:05.209Z,101453.16
2018-09-14T22:36:09.409Z,101449.63
2018-09-14T22:39:14.085Z,101449.58
2018-09-14T22:42:18.285Z,101443.73
2018-09-14T22:45:22.531Z,101448.06
2018-09-14T22:48:26.753Z,101438.17
2018-09-14T22:51:30.994Z,101435.91
2018-09-14T22:54:35.207Z,101441.61
2018-09-14T22:57:39.417Z,101438.55
2018-09-14T23:00:48.949Z,101434.54
2018-09-14T23:03:53.199Z,101443.59
2018-09-14T23:06:57.421Z,101445.47
2018-09-14T23:10:01.650Z,101448.62
2018-09-14T23:13:05.915Z,101446.70
2018-09-14T23:16:10.163Z,101449.29
2018-09-14T23:19:14.368Z,101451.84
2018-09-14T23:22:18.615Z,101450.91
2018-09-14T23:25:22.831Z,101452.71
2018-09-14T23:28:27.039Z,101443.81
2018-09-14T23:31:31.228Z,101450.73
2018-09-14T23:34:35.460Z,101449.18
2018-09-14T23:37:39.686Z,101447.81
2018-09-14T23:40:43.896Z,101454.03
2018-09-14T23:43:48.112Z,101447.39
2018-09-14T23:46:52.369Z,101439.66
2018-09-14T23:49:56.572Z,101442.86
2018-09-14T23:53:00.805Z,101441.87
2018-09-14T23:56:05.329Z,101440.87
2018-09-14T23:59:09.568Z,101435.78
